Time;durP1;ratioP1;P1;durP2;ratioP2;P2;SDS_P1;SDS_P2;PMS_P1;PMS_P2;Temp;Humidity;BMP_temperature;BMP_pressure;BME280_temperature;BME280_humidity;BME280_pressure;Samples;Min_cycle;Max_cycle;Signal;HPM_P1;HPM_P2
2023/08/22 00:00:59;;;;;;;5.20;2.80;;;;;;;27.92;35.04;98980.31;4845398;29;20217;-89
2023/08/22 00:03:26;;;;;;;4.95;2.47;;;;;;;27.90;35.11;98981.53;4845319;29;20620;-89
2023/08/22 00:05:52;;;;;;;6.22;2.42;;;;;;;27.84;35.08;98982.31;4845289;29;20197;-88
2023/08/22 00:08:19;;;;;;;7.20;2.72;;;;;;;27.81;35.22;98980.00;4845659;29;20204;-89
2023/08/22 00:10:46;;;;;;;5.97;2.35;;;;;;;27.87;35.24;98981.91;4845445;29;20196;-89
2023/08/22 00:13:12;;;;;;;5.03;2.50;;;;;;;27.80;35.53;98991.81;4845703;29;20245;-89
2023/08/22 00:15:39;;;;;;;7.22;2.38;;;;;;;27.73;35.70;98988.22;4828858;29;20189;-88
2023/08/22 00:18:05;;;;;;;4.88;2.35;;;;;;;27.73;35.50;98985.50;4844889;29;20209;-89
2023/08/22 00:20:32;;;;;;;7.00;2.40;;;;;;;27.61;35.35;98987.91;4845092;29;20237;-88
2023/08/22 00:22:59;;;;;;;4.78;2.15;;;;;;;27.57;35.07;98993.88;4845438;29;20317;-88
2023/08/22 00:25:25;;;;;;;5.38;2.63;;;;;;;27.57;34.83;98991.19;4828583;29;20181;-89
2023/08/22 00:27:52;;;;;;;5.70;2.35;;;;;;;27.57;35.01;98991.19;4828588;29;20309;-89
2023/08/22 00:30:19;;;;;;;8.25;2.72;;;;;;;27.53;35.48;98996.13;4829625;29;20177;-88
2023/08/22 00:32:45;;;;;;;6.22;2.05;;;;;;;27.49;35.85;98999.38;4844778;29;20281;-88
2023/08/22 00:35:13;;;;;;;8.82;2.50;;;;;;;27.42;35.72;98989.38;4844779;29;20181;-88
2023/08/22 00:37:39;;;;;;;4.45;2.70;;;;;;;27.37;35.94;98991.78;4844596;29;20586;-88
2023/08/22 00:40:07;;;;;;;7.07;3.17;;;;;;;27.37;35.83;98991.78;4844219;29;20256;-89
2023/08/22 00:42:32;;;;;;;8.00;3.08;;;;;;;27.41;35.64;98987.69;4827836;29;20185;-88
2023/08/22 00:44:59;;;;;;;4.00;2.00;;;;;;;27.52;34.92;98988.22;4844555;29;20249;-88
2023/08/22 00:47:26;;;;;;;5.45;2.58;;;;;;;27.61;33.98;98993.28;4844597;29;20174;-89
2023/08/22 00:49:53;;;;;;;4.57;2.40;;;;;;;27.78;33.39;98989.31;4844527;29;20185;-88
2023/08/22 00:52:19;;;;;;;5.47;2.42;;;;;;;27.88;33.89;98983.59;4844922;29;20185;-88
2023/08/22 00:54:46;;;;;;;7.82;2.55;;;;;;;28.05;33.41;98982.31;4844408;29;20553;-88
2023/08/22 00:57:13;;;;;;;4.38;2.28;;;;;;;28.14;33.54;98983.84;4844224;29;20201;-88
2023/08/22 00:59:41;;;;;;;4.90;2.47;;;;;;;28.24;33.66;98989.72;4844341;29;20181;-88
2023/08/22 01:02:08;;;;;;;4.97;3.00;;;;;;;28.29;33.49;98984.56;4828043;29;20192;-88
2023/08/22 01:04:35;;;;;;;4.90;2.35;;;;;;;28.31;33.64;98990.59;4844436;29;20197;-88
2023/08/22 01:07:35;;;;;;;5.65;2.90;;;;;;;28.37;34.66;98988.97;4844210;29;20177;-88
2023/08/22 01:10:16;;;;;;;5.70;2.90;;;;;;;28.39;34.88;98986.91;4836949;29;20197;-89
2023/08/22 01:12:55;;;;;;;8.85;3.05;;;;;;;28.33;34.61;98988.53;4844304;29;20183;-88
2023/08/22 01:15:26;;;;;;;5.57;2.78;;;;;;;28.29;34.76;98981.03;4844366;29;20233;-88
2023/08/22 01:17:57;;;;;;;11.02;3.47;;;;;;;28.14;34.77;98986.53;4843845;29;20197;-88
2023/08/22 01:20:30;;;;;;;7.45;2.55;;;;;;;28.10;34.97;98987.94;4827813;29;20639;-88
2023/08/22 01:23:00;;;;;;;8.40;2.80;;;;;;;27.96;35.21;98986.16;4827998;29;20273;-88
2023/08/22 01:25:28;;;;;;;6.47;2.47;;;;;;;27.87;35.85;98984.63;4844146;29;20208;-88
2023/08/22 01:28:18;;;;;;;4.15;2.08;;;;;;;27.85;35.87;98981.28;4827569;29;20566;-88
2023/08/22 01:31:11;;;;;;;5.82;3.05;;;;;;;27.68;35.90;98996.88;4827439;29;20254;-88
2023/08/22 01:33:46;;;;;;;6.72;2.72;;;;;;;27.65;35.90;98993.72;4827916;29;20177;-88
2023/08/22 01:36:15;;;;;;;6.88;3.35;;;;;;;27.58;36.35;98995.53;4827307;29;20233;-88
2023/08/22 01:38:43;;;;;;;8.20;2.70;;;;;;;27.52;36.35;98989.03;4843811;29;20272;-88
2023/08/22 01:41:10;;;;;;;6.13;3.72;;;;;;;27.47;36.70;99002.25;4828278;29;20197;-88
2023/08/22 01:43:36;;;;;;;5.80;3.10;;;;;;;27.39;36.65;98989.75;4843491;29;20248;-88
2023/08/22 01:46:03;;;;;;;4.80;2.45;;;;;;;27.40;36.65;98988.75;4843509;29;20185;-88
2023/08/22 01:48:28;;;;;;;6.32;2.85;;;;;;;27.38;36.88;98993.41;4843500;29;20177;-88
2023/08/22 01:50:54;;;;;;;6.57;2.60;;;;;;;27.24;37.07;98997.00;4843450;29;20177;-88
2023/08/22 01:53:20;;;;;;;5.43;2.92;;;;;;;27.19;36.99;98996.75;4827656;29;20185;-88
2023/08/22 01:55:46;;;;;;;5.88;2.90;;;;;;;27.14;37.17;98996.47;4843623;29;20184;-88
2023/08/22 01:58:12;;;;;;;5.15;2.40;;;;;;;27.08;37.72;98991.84;4843695;29;20224;-88
2023/08/22 02:00:38;;;;;;;7.63;3.33;;;;;;;27.01;37.49;98996.31;4827049;29;20231;-88
2023/08/22 02:03:04;;;;;;;4.45;2.47;;;;;;;26.95;37.10;98985.47;4843362;29;20296;-88
2023/08/22 02:05:30;;;;;;;4.93;2.40;;;;;;;26.91;37.67;98986.88;4827171;29;20587;-88
2023/08/22 02:07:59;;;;;;;10.80;2.58;;;;;;;26.77;38.22;98988.56;4826888;29;20553;-88
2023/08/22 02:10:26;;;;;;;9.10;3.08;;;;;;;26.72;37.77;98989.09;4827328;29;20184;-88
2023/08/22 02:12:51;;;;;;;5.55;2.55;;;;;;;26.75;38.16;98995.97;4826886;29;20189;-88
2023/08/22 02:15:17;;;;;;;7.65;3.13;;;;;;;26.67;38.16;98988.81;4843036;29;20195;-88
2023/08/22 02:17:44;;;;;;;5.68;1.95;;;;;;;26.63;38.15;98986.66;4843424;29;20288;-88
2023/08/22 02:20:11;;;;;;;4.22;2.40;;;;;;;26.60;38.51;98985.19;4843438;29;20633;-88
2023/08/22 02:22:42;;;;;;;6.43;2.65;;;;;;;26.63;38.24;98989.34;4842869;29;20181;-88
2023/08/22 02:25:09;;;;;;;6.95;2.55;;;;;;;26.57;38.22;98984.75;4826825;29;20205;-88
2023/08/22 02:27:36;;;;;;;10.75;3.20;;;;;;;26.50;38.63;98981.13;4843091;29;20200;-88
2023/08/22 02:30:07;;;;;;;4.70;2.30;;;;;;;26.43;38.77;98993.63;4826591;29;20667;-88
2023/08/22 02:32:33;;;;;;;6.35;2.63;;;;;;;26.40;38.89;98994.00;4826965;29;20228;-88
2023/08/22 02:35:00;;;;;;;5.47;2.20;;;;;;;26.40;38.47;98999.38;4842782;29;20209;-88
2023/08/22 02:37:27;;;;;;;4.05;2.38;;;;;;;26.31;39.11;98993.25;4842542;29;20639;-88
2023/08/22 02:39:55;;;;;;;3.80;2.37;;;;;;;26.24;38.89;99005.75;4843119;29;20200;-88
2023/08/22 02:42:22;;;;;;;6.43;2.75;;;;;;;26.16;39.15;98995.91;4842836;29;20228;-88
2023/08/22 02:44:47;;;;;;;5.77;2.53;;;;;;;26.23;39.06;98991.47;4842582;29;20310;-88
2023/08/22 02:47:14;;;;;;;6.30;2.60;;;;;;;26.31;38.75;98990.56;4842821;29;20264;-88
2023/08/22 02:49:39;;;;;;;5.50;2.60;;;;;;;26.28;39.92;99003.53;4842557;29;20181;-88
2023/08/22 02:52:06;;;;;;;7.63;2.70;;;;;;;26.20;40.37;98997.22;4842984;29;20188;-88
2023/08/22 02:54:32;;;;;;;4.53;2.57;;;;;;;26.27;40.17;98996.50;4842487;29;20177;-88
2023/08/22 02:56:58;;;;;;;9.45;3.13;;;;;;;26.27;40.02;98996.50;4826307;29;20250;-88
2023/08/22 02:59:23;;;;;;;11.07;3.70;;;;;;;26.41;40.33;99007.28;4826430;29;20272;-88
2023/08/22 03:01:49;;;;;;;5.27;3.40;;;;;;;26.52;40.30;99006.78;4842406;29;20652;-88
2023/08/22 03:04:15;;;;;;;6.17;3.67;;;;;;;26.64;40.44;98996.41;4841862;29;20185;-88
2023/08/22 03:06:42;;;;;;;7.53;3.70;;;;;;;26.75;40.33;99001.34;4842859;29;20261;-88
2023/08/22 03:09:07;;;;;;;6.40;3.60;;;;;;;26.80;40.13;98997.09;4842329;29;20628;-88
2023/08/22 03:11:34;;;;;;;7.40;4.40;;;;;;;26.95;39.78;99005.13;4842581;29;20188;-88
2023/08/22 03:14:00;;;;;;;8.43;3.10;;;;;;;27.09;39.44;99004.28;4842345;29;20307;-89
2023/08/22 03:16:26;;;;;;;10.97;3.60;;;;;;;27.17;38.91;99006.88;4842200;29;20214;-88
2023/08/22 03:18:53;;;;;;;7.27;3.60;;;;;;;27.23;39.07;99010.63;4826182;29;20188;-88
2023/08/22 03:21:19;;;;;;;9.57;3.90;;;;;;;27.29;38.61;98999.13;4842553;29;20629;-88
2023/08/22 03:23:46;;;;;;;6.43;3.10;;;;;;;27.34;38.27;99002.91;4826452;29;20275;-88
2023/08/22 03:26:12;;;;;;;7.37;3.57;;;;;;;27.40;38.17;99006.75;4842102;29;20185;-88
2023/08/22 03:28:38;;;;;;;7.37;3.53;;;;;;;27.40;37.95;99007.59;4842187;29;20200;-88
2023/08/22 03:31:05;;;;;;;5.90;3.30;;;;;;;27.50;38.16;99003.72;4842274;29;20173;-89
2023/08/22 03:33:33;;;;;;;5.73;3.50;;;;;;;27.55;37.73;99006.69;4841821;29;20185;-88
2023/08/22 03:36:00;;;;;;;8.80;3.63;;;;;;;27.57;37.80;99010.84;4842076;29;20644;-88
2023/08/22 03:38:26;;;;;;;7.33;3.20;;;;;;;27.60;37.51;99006.94;4842582;29;20202;-88
2023/08/22 03:40:55;;;;;;;9.20;4.03;;;;;;;27.59;37.48;99008.81;4842136;29;20568;-88
2023/08/22 03:43:23;;;;;;;12.90;3.53;;;;;;;27.59;37.75;99014.22;4825926;29;20196;-88
2023/08/22 03:45:48;;;;;;;6.23;3.23;;;;;;;27.60;37.78;99006.94;4842144;29;20189;-88
2023/08/22 03:48:15;;;;;;;6.50;3.40;;;;;;;27.68;37.56;99015.72;4826179;29;20180;-88
2023/08/22 03:50:42;;;;;;;9.27;3.60;;;;;;;27.70;37.63;99021.75;4825942;29;20272;-88
2023/08/22 03:53:10;;;;;;;8.50;3.00;;;;;;;27.77;37.59;99016.44;4842237;29;20181;-89
2023/08/22 03:55:37;;;;;;;5.27;2.67;;;;;;;27.78;37.38;99023.47;4842218;29;20181;-88
2023/08/22 03:58:02;;;;;;;5.68;3.20;;;;;;;27.83;37.38;99016.50;4842699;29;20301;-89
2023/08/22 04:00:28;;;;;;;9.80;3.30;;;;;;;27.82;37.23;99016.69;4825858;29;20620;-89
2023/08/22 04:02:59;;;;;;;6.03;3.53;;;;;;;27.89;37.67;99015.72;4826200;29;20680;-88
2023/08/22 04:05:26;;;;;;;7.33;3.40;;;;;;;27.84;37.62;99017.31;4838948;29;20185;-89
2023/08/22 04:07:52;;;;;;;5.40;3.03;;;;;;;27.89;37.41;99021.13;4825559;29;20231;-89
2023/08/22 04:10:19;;;;;;;5.93;2.97;;;;;;;27.89;37.72;99017.59;4825708;29;20200;-89
2023/08/22 04:12:44;;;;;;;7.00;3.90;;;;;;;27.94;37.54;99023.22;4841671;29;20192;-88
2023/08/22 04:15:11;;;;;;;7.60;3.70;;;;;;;27.89;37.85;99025.66;4826782;29;20583;-89
2023/08/22 04:17:38;;;;;;;7.70;3.10;;;;;;;27.96;38.01;99031.97;4845378;29;20204;-88
2023/08/22 04:20:07;;;;;;;6.00;3.77;;;;;;;27.95;37.95;99028.44;4845152;29;20189;-89
2023/08/22 04:22:34;;;;;;;6.10;3.27;;;;;;;28.05;37.71;99022.72;4845084;29;20173;-88
2023/08/22 04:24:59;;;;;;;8.23;3.33;;;;;;;28.07;37.63;99034.16;4845611;29;20182;-88
2023/08/22 04:27:26;;;;;;;6.37;3.40;;;;;;;28.14;37.67;99036.91;4829112;29;20622;-88
2023/08/22 04:29:51;;;;;;;4.75;3.42;;;;;;;28.20;37.86;99034.25;4828622;29;20189;-89
2023/08/22 04:32:18;;;;;;;6.45;3.88;;;;;;;28.31;37.38;99041.81;4845065;29;20512;-89
2023/08/22 04:34:44;;;;;;;7.63;3.38;;;;;;;28.23;37.78;99047.34;4844769;29;20235;-89
2023/08/22 04:37:11;;;;;;;6.35;3.60;;;;;;;28.22;37.74;99045.69;4828413;29;20248;-89
2023/08/22 04:39:37;;;;;;;7.63;3.20;;;;;;;28.37;37.51;99046.44;4828840;29;20226;-89
2023/08/22 04:42:04;;;;;;;8.48;2.80;;;;;;;28.44;38.03;99052.69;4844838;29;20193;-89
2023/08/22 04:44:31;;;;;;;8.27;4.18;;;;;;;28.51;37.74;99050.06;4845048;29;20217;-89
2023/08/22 04:46:57;;;;;;;6.72;3.10;;;;;;;28.66;37.47;99056.22;4828269;29;20213;-89
2023/08/22 04:49:26;;;;;;;5.13;3.10;;;;;;;28.75;37.47;99055.00;4828478;29;20613;-88
2023/08/22 04:51:52;;;;;;;5.57;3.50;;;;;;;29.03;36.79;99050.41;4844633;29;20196;-89
2023/08/22 04:54:19;;;;;;;10.25;3.95;;;;;;;29.10;37.14;99055.81;4828236;29;20199;-89
2023/08/22 04:56:46;;;;;;;6.72;3.35;;;;;;;29.16;37.46;99055.03;4844504;29;20224;-89
2023/08/22 04:59:13;;;;;;;5.45;3.00;;;;;;;29.36;36.93;99052.44;4844581;29;20184;-89
2023/08/22 05:01:40;;;;;;;7.10;3.63;;;;;;;29.54;36.17;99056.22;4844338;29;20196;-89
2023/08/22 05:04:07;;;;;;;6.47;3.05;;;;;;;29.70;36.33;99050.47;4828212;29;20671;-89
2023/08/22 05:06:32;;;;;;;9.77;3.60;;;;;;;29.76;35.67;99055.06;4844299;29;20200;-88
2023/08/22 05:08:59;;;;;;;6.95;3.20;;;;;;;29.84;35.78;99051.34;4827938;29;20628;-89
2023/08/22 05:11:26;;;;;;;5.20;2.72;;;;;;;29.74;35.84;99059.00;4844411;29;20636;-89
2023/08/22 05:13:52;;;;;;;4.70;2.80;;;;;;;29.91;35.54;99048.66;4843993;29;20216;-89
2023/08/22 05:16:19;;;;;;;5.68;3.00;;;;;;;29.82;35.76;99061.53;4844553;29;20268;-89
2023/08/22 05:18:46;;;;;;;5.38;3.10;;;;;;;29.99;35.61;99056.56;4843926;29;20181;-89
2023/08/22 05:21:13;;;;;;;4.95;3.05;;;;;;;30.07;35.17;99056.34;4843855;29;20221;-88
2023/08/22 05:23:39;;;;;;;7.50;3.50;;;;;;;30.11;35.00;99055.72;4827718;29;20195;-88
2023/08/22 05:26:05;;;;;;;5.15;2.83;;;;;;;30.28;35.25;99072.38;4843948;29;20189;-89
2023/08/22 05:28:31;;;;;;;4.80;2.95;;;;;;;30.22;35.22;99063.22;4843700;29;20337;-88
2023/08/22 05:30:56;;;;;;;5.90;3.05;;;;;;;30.34;34.80;99066.16;4827922;29;20284;-89
2023/08/22 05:33:22;;;;;;;3.88;2.65;;;;;;;30.27;35.06;99068.00;4828467;29;20279;-88
2023/08/22 05:35:47;;;;;;;6.25;3.28;;;;;;;30.28;34.85;99064.28;4843721;29;20265;-88
2023/08/22 05:38:13;;;;;;;4.95;2.70;;;;;;;30.47;34.91;99071.59;4827388;29;20224;-88
2023/08/22 05:40:38;;;;;;;6.80;3.28;;;;;;;30.58;34.79;99060.13;4843964;29;20612;-88
2023/08/22 05:43:03;;;;;;;4.50;3.00;;;;;;;30.52;34.73;99062.84;4843625;29;20189;-89
2023/08/22 05:45:29;;;;;;;6.55;2.92;;;;;;;30.67;34.72;99064.28;4827757;29;20192;-88
2023/08/22 05:47:56;;;;;;;6.95;3.15;;;;;;;30.79;34.68;99067.97;4827266;29;20189;-88
2023/08/22 05:50:21;;;;;;;6.05;3.28;;;;;;;30.86;34.78;99066.13;4843721;29;20204;-89
2023/08/22 05:52:48;;;;;;;4.65;2.65;;;;;;;31.01;34.66;99069.44;4827420;29;20539;-88
2023/08/22 05:55:15;;;;;;;5.75;2.80;;;;;;;31.23;34.57;99061.03;4843325;29;20196;-89
2023/08/22 05:57:42;;;;;;;4.50;2.83;;;;;;;31.35;34.32;99067.44;4827528;29;20231;-89
2023/08/22 06:00:09;;;;;;;4.72;2.90;;;;;;;31.44;33.63;99066.16;4827266;29;20193;-89
2023/08/22 06:02:36;;;;;;;5.30;2.90;;;;;;;31.51;33.94;99069.69;4843141;29;20193;-88
2023/08/22 06:05:03;;;;;;;6.88;3.13;;;;;;;31.58;33.80;99063.16;4843713;29;20612;-89
2023/08/22 06:07:29;;;;;;;6.93;3.03;;;;;;;31.67;34.12;99061.03;4827029;29;20185;-88
2023/08/22 06:09:54;;;;;;;5.28;2.90;;;;;;;31.79;33.59;99067.44;4843106;29;20191;-88
2023/08/22 06:12:21;;;;;;;8.77;3.03;;;;;;;31.81;33.34;99067.22;4843186;29;20267;-89
2023/08/22 06:14:48;;;;;;;6.22;3.78;;;;;;;31.90;33.08;99063.19;4842933;29;20203;-88
2023/08/22 06:17:14;;;;;;;4.55;2.90;;;;;;;31.98;33.01;99063.75;4842982;29;20217;-88
2023/08/22 06:19:41;;;;;;;8.52;3.28;;;;;;;32.05;32.49;99067.28;4843136;29;20635;-88
2023/08/22 06:22:08;;;;;;;4.95;3.03;;;;;;;32.10;32.74;99070.16;4826941;29;20184;-88
2023/08/22 06:24:34;;;;;;;6.00;3.40;;;;;;;32.27;32.54;99075.06;4842817;29;20621;-88
2023/08/22 06:27:01;;;;;;;8.00;3.08;;;;;;;32.31;32.42;99073.56;4843077;29;20180;-88
2023/08/22 06:29:27;;;;;;;4.55;2.90;;;;;;;32.48;32.69;99078.22;4842750;29;20229;-88
2023/08/22 06:31:54;;;;;;;7.80;3.33;;;;;;;32.68;31.99;99072.63;4827122;29;20292;-89
2023/08/22 06:34:20;;;;;;;5.55;3.15;;;;;;;33.08;31.83;99075.78;4826791;29;20196;-88
2023/08/22 06:36:46;;;;;;;4.38;3.00;;;;;;;33.30;31.18;99075.13;4826753;29;20252;-88
2023/08/22 06:39:12;;;;;;;4.70;2.80;;;;;;;33.62;31.32;99074.94;4842661;29;20608;-88
2023/08/22 06:41:38;;;;;;;6.68;2.70;;;;;;;33.85;30.85;99072.31;4842583;29;20197;-88
2023/08/22 06:44:08;;;;;;;6.20;2.75;;;;;;;34.11;30.68;99069.22;4842680;29;20184;-88
2023/08/22 06:46:36;;;;;;;6.72;3.25;;;;;;;34.13;30.13;99072.53;4827463;29;20201;-87
2023/08/22 06:49:03;;;;;;;4.60;2.85;;;;;;;34.36;30.27;99078.00;4826582;29;20196;-88
2023/08/22 06:51:30;;;;;;;8.15;3.15;;;;;;;34.55;29.62;99070.56;4842280;29;20212;-88
2023/08/22 06:53:57;;;;;;;6.65;3.50;;;;;;;34.70;29.65;99067.41;4843344;29;20185;-88
2023/08/22 06:56:26;;;;;;;6.82;3.67;;;;;;;34.73;29.71;99075.09;4842711;29;20181;-88
2023/08/22 06:58:52;;;;;;;6.03;3.25;;;;;;;35.08;29.58;99078.66;4842790;29;20177;-89
2023/08/22 07:01:19;;;;;;;5.45;3.10;;;;;;;35.23;28.68;99072.69;4843265;29;20608;-88
2023/08/22 07:03:46;;;;;;;6.00;2.85;;;;;;;35.44;29.15;99078.31;4826642;29;20193;-89
2023/08/22 07:06:11;;;;;;;5.75;3.17;;;;;;;35.40;28.35;99079.88;4842722;29;20522;-88
2023/08/22 07:08:36;;;;;;;4.55;2.60;;;;;;;35.59;28.38;99077.81;4842443;29;20655;-88
2023/08/22 07:11:04;;;;;;;8.23;3.33;;;;;;;35.73;28.86;99076.47;4842414;29;20220;-88
2023/08/22 07:13:32;;;;;;;5.07;3.10;;;;;;;36.10;27.60;99068.72;4842354;29;20181;-89
2023/08/22 07:15:59;;;;;;;4.13;3.08;;;;;;;36.36;27.11;99079.81;4842444;29;20185;-88
2023/08/22 07:18:27;;;;;;;6.68;3.20;;;;;;;36.47;27.66;99077.25;4826263;29;20259;-88
2023/08/22 07:20:53;;;;;;;6.40;3.00;;;;;;;36.57;27.47;99083.72;4826570;29;20671;-88
2023/08/22 07:23:20;;;;;;;5.97;2.83;;;;;;;36.57;26.54;99078.25;4842653;29;20193;-88
2023/08/22 07:25:51;;;;;;;5.78;3.30;;;;;;;36.67;27.49;99070.22;4842569;29;20246;-89
2023/08/22 07:28:18;;;;;;;9.40;3.45;;;;;;;36.99;27.07;99075.06;4842453;29;20185;-88
2023/08/22 07:30:47;;;;;;;5.30;2.60;;;;;;;37.26;25.83;99073.25;4843227;29;20613;-88
2023/08/22 07:33:14;;;;;;;5.47;3.13;;;;;;;37.21;26.27;99073.19;4826021;29;20292;-88
2023/08/22 07:35:41;;;;;;;7.90;3.05;;;;;;;37.36;26.57;99073.38;4842115;29;20261;-89
2023/08/22 07:38:09;;;;;;;5.53;2.55;;;;;;;37.59;26.65;99062.19;4841996;29;20240;-88
2023/08/22 07:40:39;;;;;;;5.63;3.17;;;;;;;37.65;26.39;99071.28;4826052;29;20185;-89
2023/08/22 07:43:06;;;;;;;5.65;3.15;;;;;;;37.86;25.29;99067.69;4842407;29;20177;-88
2023/08/22 07:45:33;;;;;;;4.70;2.75;;;;;;;37.99;25.55;99059.91;4826774;29;20616;-88
2023/08/22 07:47:59;;;;;;;5.68;3.08;;;;;;;38.21;25.40;99059.81;4842545;29;20181;-89
2023/08/22 07:50:26;;;;;;;5.43;2.88;;;;;;;38.41;25.26;99064.66;4843318;29;20181;-88
2023/08/22 07:52:53;;;;;;;5.55;2.85;;;;;;;38.49;24.99;99061.44;4846118;29;20196;-88
2023/08/22 07:55:22;;;;;;;4.63;2.95;;;;;;;38.52;25.09;99055.44;4845559;29;20189;-87
2023/08/22 07:57:49;;;;;;;6.25;3.30;;;;;;;38.67;25.16;99058.28;4829720;29;20213;-89
2023/08/22 08:00:16;;;;;;;6.85;3.05;;;;;;;38.65;25.08;99049.50;4829143;29;20193;-88
2023/08/22 08:02:43;;;;;;;10.60;3.30;;;;;;;38.88;25.15;99054.59;4829048;29;20189;-89
2023/08/22 08:05:12;;;;;;;5.65;3.00;;;;;;;39.12;25.04;99053.09;4845376;29;20202;-89
2023/08/22 08:07:39;;;;;;;7.32;3.38;;;;;;;39.28;24.05;99060.28;4829880;29;20638;-89
2023/08/22 08:10:07;;;;;;;6.40;2.80;;;;;;;39.46;24.11;99055.44;4828980;29;20639;-89
2023/08/22 08:12:34;;;;;;;8.73;2.95;;;;;;;39.75;23.76;99048.41;4828995;29;20526;-89
2023/08/22 08:14:59;;;;;;;5.88;2.50;;;;;;;39.76;23.35;99050.03;4828945;29;20276;-88
2023/08/22 08:17:26;;;;;;;5.95;3.28;;;;;;;39.91;24.77;99050.09;4845097;29;20303;-89
2023/08/22 08:19:51;;;;;;;6.40;2.80;;;;;;;40.04;23.59;99046.81;4829190;29;20546;-89
2023/08/22 08:22:17;;;;;;;6.00;2.58;;;;;;;40.00;23.17;99051.19;4845370;29;20185;-89
2023/08/22 08:24:44;;;;;;;4.43;2.78;;;;;;;40.17;23.95;99061.94;4828976;29;20185;-89
2023/08/22 08:27:09;;;;;;;5.70;3.10;;;;;;;40.40;23.92;99045.72;4845043;29;20257;-89
2023/08/22 08:29:36;;;;;;;6.15;2.55;;;;;;;40.54;23.39;99050.69;4844850;29;20590;-89
2023/08/22 08:32:03;;;;;;;8.70;3.15;;;;;;;40.64;22.91;99047.91;4845553;29;20218;-89
2023/08/22 08:34:30;;;;;;;8.65;3.33;;;;;;;40.66;23.29;99048.47;4844947;29;20569;-89
2023/08/22 08:36:56;;;;;;;9.82;3.35;;;;;;;40.79;23.29;99047.88;4844486;29;20674;-89
2023/08/22 08:39:21;;;;;;;5.45;3.13;;;;;;;40.69;23.23;99047.91;4844851;29;20177;-88
2023/08/22 08:42:09;;;;;;;4.55;2.58;;;;;;;40.59;23.51;99050.69;4844785;29;20257;-89
2023/08/22 08:44:36;;;;;;;5.80;2.58;;;;;;;40.26;23.46;99046.53;4845020;29;20191;-89
2023/08/22 08:47:03;;;;;;;4.25;2.63;;;;;;;40.43;23.49;99049.84;4828443;29;20177;-89
2023/08/22 08:49:34;;;;;;;6.40;3.22;;;;;;;40.44;23.23;99045.97;4828409;29;20200;-89
2023/08/22 08:52:05;;;;;;;4.78;2.72;;;;;;;40.43;24.29;99036.94;4844706;29;20189;-88
2023/08/22 08:54:35;;;;;;;5.00;2.80;;;;;;;40.87;23.90;99045.38;4845377;29;20289;-89
2023/08/22 08:57:03;;;;;;;6.57;2.92;;;;;;;40.49;23.34;99046.81;4844983;29;20227;-88
2023/08/22 08:59:30;;;;;;;4.35;2.63;;;;;;;40.61;23.36;99043.81;4845035;29;20185;-88
2023/08/22 09:01:59;;;;;;;8.93;3.20;;;;;;;40.25;23.88;99042.16;4827167;29;20181;-89
2023/08/22 09:04:26;;;;;;;8.73;3.13;;;;;;;40.65;24.11;99035.84;4844368;29;20666;-89
2023/08/22 09:06:52;;;;;;;12.88;3.40;;;;;;;40.22;23.98;99034.47;4828065;29;20245;-89
2023/08/22 09:09:17;;;;;;;6.65;3.38;;;;;;;40.74;23.72;99034.16;4844296;29;20566;-89
2023/08/22 09:11:46;;;;;;;5.22;2.95;;;;;;;40.63;23.73;99035.25;4844331;29;20240;-89
2023/08/22 09:14:19;;;;;;;6.50;2.58;;;;;;;40.84;23.43;99034.13;4844325;29;20189;-89
2023/08/22 09:16:46;;;;;;;6.53;2.85;;;;;;;40.80;23.61;99027.53;4827973;29;20193;-88
2023/08/22 09:19:13;;;;;;;6.05;3.45;;;;;;;41.06;23.37;99032.72;4828247;29;20193;-89
2023/08/22 09:21:56;;;;;;;7.78;3.42;;;;;;;40.90;23.37;99011.03;4828201;29;20185;-88
2023/08/22 09:24:24;;;;;;;4.93;3.47;;;;;;;41.30;23.01;99010.91;4813145;29;20185;-89
2023/08/22 09:26:51;;;;;;;11.15;3.63;;;;;;;40.87;23.33;99012.38;4828524;29;20241;-89
2023/08/22 09:29:28;;;;;;;6.28;2.80;;;;;;;41.26;22.99;99014.44;4844313;29;20193;-89
2023/08/22 09:32:07;;;;;;;6.85;3.03;;;;;;;40.86;23.26;99009.91;4843871;29;20184;-88
2023/08/22 09:34:34;;;;;;;6.07;2.90;;;;;;;40.52;23.13;99004.22;4827726;29;20189;-89
2023/08/22 09:36:59;;;;;;;4.35;2.85;;;;;;;40.59;23.88;99003.94;4843900;29;20193;-88
2023/08/22 09:39:25;;;;;;;5.97;2.90;;;;;;;40.25;24.08;99010.03;4844027;29;20184;-89
2023/08/22 09:41:54;;;;;;;5.63;2.88;;;;;;;40.85;22.59;99013.78;4827961;29;20241;-89
2023/08/22 09:44:23;;;;;;;4.55;2.80;;;;;;;40.79;22.99;99004.72;4843686;29;20264;-89
2023/08/22 09:46:51;;;;;;;5.72;3.38;;;;;;;41.39;22.14;99000.94;4843616;29;20406;-87
2023/08/22 09:49:18;;;;;;;4.82;3.22;;;;;;;41.55;22.11;99002.50;4843683;29;20220;-88
2023/08/22 09:51:47;;;;;;;5.38;3.13;;;;;;;41.54;22.62;98992.56;4844060;29;20252;-89
2023/08/22 09:54:14;;;;;;;9.65;3.47;;;;;;;41.21;22.42;98993.31;4843774;29;20185;-89
2023/08/22 09:56:42;;;;;;;6.07;2.92;;;;;;;41.25;22.62;98997.13;4843366;29;20181;-91
2023/08/22 09:59:10;;;;;;;6.10;3.22;;;;;;;40.87;22.80;98984.06;4827441;29;20216;-88
2023/08/22 10:01:40;;;;;;;7.53;2.80;;;;;;;40.83;23.00;98974.75;4841829;29;20185;-88
2023/08/22 10:04:05;;;;;;;10.48;3.30;;;;;;;41.13;22.80;98966.38;4830387;29;20204;-89
2023/08/22 10:06:33;;;;;;;4.30;2.80;;;;;;;41.06;22.37;98974.13;4818675;29;20194;-88
2023/08/22 10:09:06;;;;;;;7.22;2.75;;;;;;;41.40;22.04;98975.06;4827337;29;20197;-87
2023/08/22 10:11:39;;;;;;;7.60;3.15;;;;;;;41.49;22.02;98981.59;4842951;29;20177;-89
2023/08/22 10:14:12;;;;;;;5.43;3.00;;;;;;;41.40;22.81;98977.81;4827655;29;20265;-89
2023/08/22 10:16:38;;;;;;;5.65;3.00;;;;;;;41.79;22.40;98963.25;4843343;29;20570;-88
2023/08/22 10:19:08;;;;;;;4.75;3.17;;;;;;;42.03;21.31;98976.00;4827394;29;20288;-89
2023/08/22 10:21:45;;;;;;;8.27;3.90;;;;;;;42.28;21.32;98969.44;4843167;29;20648;-88
2023/08/22 10:24:26;;;;;;;7.25;3.38;;;;;;;42.16;20.95;98963.53;4827038;29;20227;-88
2023/08/22 10:27:03;;;;;;;5.15;2.85;;;;;;;41.99;21.42;98960.31;4843537;29;20161;-88
2023/08/22 10:29:45;;;;;;;4.72;3.13;;;;;;;41.82;21.65;98962.69;4843116;29;20165;-89
2023/08/22 10:32:11;;;;;;;6.78;3.13;;;;;;;41.68;21.91;98959.72;4826951;29;20169;-88
2023/08/22 10:34:42;;;;;;;6.35;3.08;;;;;;;41.89;21.71;98955.72;4842828;29;20195;-88
2023/08/22 10:37:18;;;;;;;4.60;2.53;;;;;;;41.68;21.42;98957.81;4842825;29;20201;-94
2023/08/22 10:39:48;;;;;;;6.35;3.88;;;;;;;41.61;22.02;98953.72;4843392;29;20181;-89
2023/08/22 10:42:21;;;;;;;9.30;3.25;;;;;;;41.55;21.76;98955.69;4843002;29;20185;-89
2023/08/22 10:44:56;;;;;;;6.57;3.45;;;;;;;41.70;21.55;98949.25;4843007;29;20208;-89
2023/08/22 10:47:32;;;;;;;7.40;2.70;;;;;;;41.29;22.10;98937.69;4842678;29;20654;-90
2023/08/22 10:50:01;;;;;;;7.20;3.50;;;;;;;41.51;21.84;98938.09;4843003;29;20175;-88
2023/08/22 10:52:32;;;;;;;8.07;3.17;;;;;;;41.70;21.82;98927.22;4826668;29;20219;-89
2023/08/22 10:55:10;;;;;;;5.18;2.97;;;;;;;41.86;22.07;98931.53;4843158;29;20204;-88
2023/08/22 10:57:44;;;;;;;4.97;2.72;;;;;;;41.90;21.58;98923.50;4843074;29;20204;-88
2023/08/22 11:00:22;;;;;;;8.80;3.30;;;;;;;42.40;21.56;98920.28;4843061;29;20185;-88
2023/08/22 11:02:51;;;;;;;8.55;3.88;;;;;;;42.36;21.21;98923.91;4826352;29;20198;-89
2023/08/22 11:05:16;;;;;;;6.43;3.22;;;;;;;42.65;21.77;98916.41;4823059;29;20217;-88
2023/08/22 11:07:49;;;;;;;7.53;3.00;;;;;;;42.75;21.43;98922.63;4835708;29;20189;-89
2023/08/22 11:10:23;;;;;;;4.05;3.22;;;;;;;43.04;20.60;98930.00;4842762;29;20247;-88
2023/08/22 11:12:53;;;;;;;9.05;3.85;;;;;;;43.22;20.91;98912.63;4827204;29;20256;-89
2023/08/22 11:15:20;;;;;;;6.50;3.45;;;;;;;43.39;20.31;98910.22;4826230;29;20181;-89
2023/08/22 11:17:48;;;;;;;4.68;3.03;;;;;;;43.07;20.20;98910.09;4826287;29;20307;-88
2023/08/22 11:20:18;;;;;;;7.72;3.78;;;;;;;42.42;20.85;98918.06;4826180;29;20341;-89
2023/08/22 11:22:45;;;;;;;5.38;3.40;;;;;;;41.79;21.58;98917.28;4826507;29;20189;-88
2023/08/22 11:25:12;;;;;;;9.40;3.47;;;;;;;41.58;22.08;98913.00;4827200;29;20204;-89
2023/08/22 11:27:42;;;;;;;7.82;3.70;;;;;;;41.56;21.70;98904.22;4830362;29;20185;-89
2023/08/22 11:30:09;;;;;;;7.18;3.50;;;;;;;41.51;22.56;98902.31;4829812;29;20614;-90
2023/08/22 11:32:38;;;;;;;7.30;3.05;;;;;;;41.62;21.80;98898.38;4846092;29;20207;-88
2023/08/22 11:35:06;;;;;;;6.30;3.33;;;;;;;42.16;21.26;98889.97;4829986;29;20324;-88
2023/08/22 11:37:37;;;;;;;8.07;3.25;;;;;;;42.45;21.88;98895.41;4845464;29;20240;-89